sensor_id;sensor_type;location;lat;lon;timestamp;P1;durP1;ratioP1;P2;durP2;ratioP2
65535;SDS011;52145;49.342;9.116;2023-05-02T00:01:29;8.63;;;5.60;;
65535;SDS011;52145;49.342;9.116;2023-05-02T00:03:55;9.50;;;5.75;;
65535;SDS011;52145;49.342;9.116;2023-05-02T00:06:21;7.22;;;5.20;;
65535;SDS011;52145;49.342;9.116;2023-05-02T00:08:47;9.05;;;5.25;;
65535;SDS011;52145;49.342;9.116;2023-05-02T00:11:14;7.05;;;5.38;;
65535;SDS011;52145;49.342;9.116;2023-05-02T00:13:40;10.25;;;5.80;;
65535;SDS011;52145;49.342;9.116;2023-05-02T00:16:07;9.02;;;5.43;;
65535;SDS011;52145;49.342;9.116;2023-05-02T00:18:35;7.65;;;5.07;;
65535;SDS011;52145;49.342;9.116;2023-05-02T00:21:01;9.15;;;5.18;;
65535;SDS011;52145;49.342;9.116;2023-05-02T00:23:26;6.93;;;4.75;;
65535;SDS011;52145;49.342;9.116;2023-05-02T00:25:52;9.13;;;5.47;;
65535;SDS011;52145;49.342;9.116;2023-05-02T00:28:18;7.38;;;4.90;;
65535;SDS011;52145;49.342;9.116;2023-05-02T00:30:44;9.52;;;5.00;;
65535;SDS011;52145;49.342;9.116;2023-05-02T00:33:11;7.47;;;5.10;;
65535;SDS011;52145;49.342;9.116;2023-05-02T00:35:38;9.13;;;5.50;;
65535;SDS011;52145;49.342;9.116;2023-05-02T00:38:04;8.25;;;5.15;;
65535;SDS011;52145;49.342;9.116;2023-05-02T00:40:30;7.07;;;5.28;;
65535;SDS011;52145;49.342;9.116;2023-05-02T00:42:56;7.85;;;5.43;;
65535;SDS011;52145;49.342;9.116;2023-05-02T00:45:22;7.55;;;5.20;;
65535;SDS011;52145;49.342;9.116;2023-05-02T00:47:48;7.40;;;5.00;;
65535;SDS011;52145;49.342;9.116;2023-05-02T00:50:15;8.60;;;4.88;;
65535;SDS011;52145;49.342;9.116;2023-05-02T00:52:41;7.40;;;5.18;;
65535;SDS011;52145;49.342;9.116;2023-05-02T00:55:08;8.77;;;5.43;;
65535;SDS011;52145;49.342;9.116;2023-05-02T00:57:34;7.43;;;5.05;;
65535;SDS011;52145;49.342;9.116;2023-05-02T01:00:00;8.57;;;4.85;;
65535;SDS011;52145;49.342;9.116;2023-05-02T01:02:37;7.30;;;5.28;;
65535;SDS011;52145;49.342;9.116;2023-05-02T01:05:14;6.88;;;5.13;;
65535;SDS011;52145;49.342;9.116;2023-05-02T01:08:01;5.72;;;3.35;;
65535;SDS011;52145;49.342;9.116;2023-05-02T01:13:07;6.43;;;3.63;;
65535;SDS011;52145;49.342;9.116;2023-05-02T01:15:34;8.18;;;3.67;;
65535;SDS011;52145;49.342;9.116;2023-05-02T01:18:02;7.18;;;4.38;;
65535;SDS011;52145;49.342;9.116;2023-05-02T01:20:28;6.75;;;3.97;;
65535;SDS011;52145;49.342;9.116;2023-05-02T01:22:57;7.38;;;4.28;;
65535;SDS011;52145;49.342;9.116;2023-05-02T01:25:30;10.95;;;4.80;;
65535;SDS011;52145;49.342;9.116;2023-05-02T01:30:43;9.23;;;5.78;;
65535;SDS011;52145;49.342;9.116;2023-05-02T01:33:11;8.48;;;5.45;;
65535;SDS011;52145;49.342;9.116;2023-05-02T01:35:38;15.68;;;6.13;;
65535;SDS011;52145;49.342;9.116;2023-05-02T01:38:04;7.97;;;4.95;;
65535;SDS011;52145;49.342;9.116;2023-05-02T01:40:31;9.95;;;6.07;;
65535;SDS011;52145;49.342;9.116;2023-05-02T01:42:58;8.93;;;6.05;;
65535;SDS011;52145;49.342;9.116;2023-05-02T01:45:24;9.10;;;5.07;;
65535;SDS011;52145;49.342;9.116;2023-05-02T01:47:51;10.48;;;5.93;;
65535;SDS011;52145;49.342;9.116;2023-05-02T01:50:19;8.07;;;5.28;;
65535;SDS011;52145;49.342;9.116;2023-05-02T01:52:47;8.68;;;5.53;;
65535;SDS011;52145;49.342;9.116;2023-05-02T01:55:15;8.88;;;5.47;;
65535;SDS011;52145;49.342;9.116;2023-05-02T01:57:42;10.45;;;5.97;;
65535;SDS011;52145;49.342;9.116;2023-05-02T02:00:09;7.03;;;5.15;;
65535;SDS011;52145;49.342;9.116;2023-05-02T02:02:36;8.15;;;5.70;;
65535;SDS011;52145;49.342;9.116;2023-05-02T02:05:04;8.77;;;5.57;;
65535;SDS011;52145;49.342;9.116;2023-05-02T02:07:30;8.60;;;5.45;;
65535;SDS011;52145;49.342;9.116;2023-05-02T02:09:56;8.60;;;5.53;;
65535;SDS011;52145;49.342;9.116;2023-05-02T02:12:26;7.40;;;5.07;;
65535;SDS011;52145;49.342;9.116;2023-05-02T02:14:59;7.75;;;5.00;;
65535;SDS011;52145;49.342;9.116;2023-05-02T02:17:26;9.57;;;5.28;;
65535;SDS011;52145;49.342;9.116;2023-05-02T02:19:55;8.75;;;5.63;;
65535;SDS011;52145;49.342;9.116;2023-05-02T02:22:22;8.63;;;5.35;;
65535;SDS011;52145;49.342;9.116;2023-05-02T02:24:48;8.63;;;5.50;;
65535;SDS011;52145;49.342;9.116;2023-05-02T02:27:14;11.40;;;5.70;;
65535;SDS011;52145;49.342;9.116;2023-05-02T02:29:40;8.05;;;4.53;;
65535;SDS011;52145;49.342;9.116;2023-05-02T02:32:06;6.35;;;4.65;;
65535;SDS011;52145;49.342;9.116;2023-05-02T02:34:32;6.32;;;4.38;;
65535;SDS011;52145;49.342;9.116;2023-05-02T02:42:02;8.32;;;6.03;;
65535;SDS011;52145;49.342;9.116;2023-05-02T02:44:51;7.55;;;5.82;;
65535;SDS011;52145;49.342;9.116;2023-05-02T02:47:26;8.93;;;6.28;;
65535;SDS011;52145;49.342;9.116;2023-05-02T02:50:07;7.22;;;5.63;;
65535;SDS011;52145;49.342;9.116;2023-05-02T02:52:47;9.07;;;5.90;;
65535;SDS011;52145;49.342;9.116;2023-05-02T02:55:30;8.43;;;5.30;;
65535;SDS011;52145;49.342;9.116;2023-05-02T02:57:59;8.77;;;5.38;;
65535;SDS011;52145;49.342;9.116;2023-05-02T03:00:27;9.95;;;5.90;;
65535;SDS011;52145;49.342;9.116;2023-05-02T03:02:53;8.57;;;5.50;;
65535;SDS011;52145;49.342;9.116;2023-05-02T03:05:21;9.07;;;5.78;;
65535;SDS011;52145;49.342;9.116;2023-05-02T03:07:47;10.63;;;5.45;;
65535;SDS011;52145;49.342;9.116;2023-05-02T03:10:13;10.00;;;5.70;;
65535;SDS011;52145;49.342;9.116;2023-05-02T03:12:39;10.48;;;5.88;;
65535;SDS011;52145;49.342;9.116;2023-05-02T03:17:34;7.88;;;5.85;;
65535;SDS011;52145;49.342;9.116;2023-05-02T03:20:00;7.40;;;4.97;;
65535;SDS011;52145;49.342;9.116;2023-05-02T03:22:27;6.80;;;4.88;;
65535;SDS011;52145;49.342;9.116;2023-05-02T03:24:53;8.10;;;5.03;;
65535;SDS011;52145;49.342;9.116;2023-05-02T03:27:19;8.07;;;5.22;;
65535;SDS011;52145;49.342;9.116;2023-05-02T03:29:45;6.78;;;5.00;;
65535;SDS011;52145;49.342;9.116;2023-05-02T03:32:11;8.15;;;5.40;;
65535;SDS011;52145;49.342;9.116;2023-05-02T03:34:37;8.60;;;5.30;;
65535;SDS011;52145;49.342;9.116;2023-05-02T03:37:03;10.48;;;6.25;;
65535;SDS011;52145;49.342;9.116;2023-05-02T03:39:29;7.72;;;5.65;;
65535;SDS011;52145;49.342;9.116;2023-05-02T03:41:55;9.57;;;5.93;;
65535;SDS011;52145;49.342;9.116;2023-05-02T03:44:21;10.02;;;6.28;;
65535;SDS011;52145;49.342;9.116;2023-05-02T03:46:47;8.75;;;5.95;;
65535;SDS011;52145;49.342;9.116;2023-05-02T03:49:13;8.93;;;5.90;;
65535;SDS011;52145;49.342;9.116;2023-05-02T03:51:39;8.68;;;6.13;;
65535;SDS011;52145;49.342;9.116;2023-05-02T03:54:05;8.07;;;6.07;;
65535;SDS011;52145;49.342;9.116;2023-05-02T03:56:31;10.85;;;6.88;;
65535;SDS011;52145;49.342;9.116;2023-05-02T03:58:57;10.05;;;6.13;;
65535;SDS011;52145;49.342;9.116;2023-05-02T04:01:23;10.98;;;6.57;;
65535;SDS011;52145;49.342;9.116;2023-05-02T04:03:50;9.30;;;6.47;;
65535;SDS011;52145;49.342;9.116;2023-05-02T04:06:17;8.25;;;6.15;;
65535;SDS011;52145;49.342;9.116;2023-05-02T04:08:42;9.27;;;6.00;;
65535;SDS011;52145;49.342;9.116;2023-05-02T04:11:08;8.13;;;6.25;;
65535;SDS011;52145;49.342;9.116;2023-05-02T04:13:34;11.10;;;6.03;;
65535;SDS011;52145;49.342;9.116;2023-05-02T04:16:00;11.23;;;6.63;;
65535;SDS011;52145;49.342;9.116;2023-05-02T04:18:26;9.43;;;6.32;;
65535;SDS011;52145;49.342;9.116;2023-05-02T04:20:52;15.30;;;6.95;;
65535;SDS011;52145;49.342;9.116;2023-05-02T04:23:18;12.60;;;8.10;;
65535;SDS011;52145;49.342;9.116;2023-05-02T04:25:51;10.15;;;7.30;;
65535;SDS011;52145;49.342;9.116;2023-05-02T04:28:17;8.18;;;6.50;;
65535;SDS011;52145;49.342;9.116;2023-05-02T04:30:43;12.10;;;6.43;;
65535;SDS011;52145;49.342;9.116;2023-05-02T04:33:09;13.10;;;6.80;;
65535;SDS011;52145;49.342;9.116;2023-05-02T04:35:38;10.20;;;6.60;;
65535;SDS011;52145;49.342;9.116;2023-05-02T04:38:04;10.30;;;6.45;;
65535;SDS011;52145;49.342;9.116;2023-05-02T04:40:31;10.05;;;6.68;;
65535;SDS011;52145;49.342;9.116;2023-05-02T04:42:57;13.18;;;6.85;;
65535;SDS011;52145;49.342;9.116;2023-05-02T04:45:24;9.32;;;6.70;;
65535;SDS011;52145;49.342;9.116;2023-05-02T04:47:50;10.68;;;7.22;;
65535;SDS011;52145;49.342;9.116;2023-05-02T04:50:16;9.93;;;7.28;;
65535;SDS011;52145;49.342;9.116;2023-05-02T04:52:41;10.05;;;7.03;;
65535;SDS011;52145;49.342;9.116;2023-05-02T04:55:07;8.57;;;6.50;;
65535;SDS011;52145;49.342;9.116;2023-05-02T04:57:33;9.25;;;6.65;;
65535;SDS011;52145;49.342;9.116;2023-05-02T04:59:59;10.13;;;6.32;;
65535;SDS011;52145;49.342;9.116;2023-05-02T05:02:25;10.52;;;6.28;;
65535;SDS011;52145;49.342;9.116;2023-05-02T05:04:51;8.50;;;6.20;;
65535;SDS011;52145;49.342;9.116;2023-05-02T05:07:17;8.73;;;6.50;;
65535;SDS011;52145;49.342;9.116;2023-05-02T05:09:44;9.52;;;6.60;;
65535;SDS011;52145;49.342;9.116;2023-05-02T05:12:10;9.02;;;6.70;;
65535;SDS011;52145;49.342;9.116;2023-05-02T05:14:36;8.23;;;6.15;;
65535;SDS011;52145;49.342;9.116;2023-05-02T05:17:02;10.60;;;6.13;;
65535;SDS011;52145;49.342;9.116;2023-05-02T05:19:28;9.70;;;6.60;;
65535;SDS011;52145;49.342;9.116;2023-05-02T05:21:53;9.52;;;6.68;;
65535;SDS011;52145;49.342;9.116;2023-05-02T05:24:19;7.38;;;6.00;;
65535;SDS011;52145;49.342;9.116;2023-05-02T05:26:45;9.50;;;6.00;;
65535;SDS011;52145;49.342;9.116;2023-05-02T05:29:11;9.02;;;6.05;;
65535;SDS011;52145;49.342;9.116;2023-05-02T05:31:37;7.82;;;6.30;;
65535;SDS011;52145;49.342;9.116;2023-05-02T05:34:03;8.13;;;6.22;;
65535;SDS011;52145;49.342;9.116;2023-05-02T05:36:29;9.00;;;6.10;;
65535;SDS011;52145;49.342;9.116;2023-05-02T05:38:56;8.68;;;5.82;;
65535;SDS011;52145;49.342;9.116;2023-05-02T05:41:22;8.98;;;5.78;;
65535;SDS011;52145;49.342;9.116;2023-05-02T05:43:48;9.20;;;6.38;;
65535;SDS011;52145;49.342;9.116;2023-05-02T05:46:14;9.63;;;6.07;;
65535;SDS011;52145;49.342;9.116;2023-05-02T05:48:40;9.48;;;5.97;;
65535;SDS011;52145;49.342;9.116;2023-05-02T05:51:06;9.40;;;5.88;;
65535;SDS011;52145;49.342;9.116;2023-05-02T05:53:32;8.45;;;6.07;;
65535;SDS011;52145;49.342;9.116;2023-05-02T05:56:06;8.68;;;5.97;;
65535;SDS011;52145;49.342;9.116;2023-05-02T05:58:32;7.50;;;5.15;;
65535;SDS011;52145;49.342;9.116;2023-05-02T06:00:58;10.70;;;6.03;;
65535;SDS011;52145;49.342;9.116;2023-05-02T06:03:24;10.57;;;5.90;;
65535;SDS011;52145;49.342;9.116;2023-05-02T06:05:50;8.10;;;5.32;;
65535;SDS011;52145;49.342;9.116;2023-05-02T06:08:16;8.55;;;6.28;;
65535;SDS011;52145;49.342;9.116;2023-05-02T06:10:42;9.10;;;6.43;;
65535;SDS011;52145;49.342;9.116;2023-05-02T06:13:08;11.85;;;7.38;;
65535;SDS011;52145;49.342;9.116;2023-05-02T06:15:34;14.30;;;7.13;;
65535;SDS011;52145;49.342;9.116;2023-05-02T06:18:00;9.23;;;6.85;;
65535;SDS011;52145;49.342;9.116;2023-05-02T06:20:26;10.02;;;7.38;;
65535;SDS011;52145;49.342;9.116;2023-05-02T06:22:52;11.25;;;7.20;;
65535;SDS011;52145;49.342;9.116;2023-05-02T06:25:18;11.00;;;6.97;;
65535;SDS011;52145;49.342;9.116;2023-05-02T06:27:44;12.70;;;8.27;;
65535;SDS011;52145;49.342;9.116;2023-05-02T06:30:10;11.65;;;7.03;;
65535;SDS011;52145;49.342;9.116;2023-05-02T06:32:36;13.45;;;7.40;;
65535;SDS011;52145;49.342;9.116;2023-05-02T06:35:02;10.60;;;6.55;;
65535;SDS011;52145;49.342;9.116;2023-05-02T06:37:31;9.43;;;6.85;;
65535;SDS011;52145;49.342;9.116;2023-05-02T06:39:58;9.57;;;6.45;;
65535;SDS011;52145;49.342;9.116;2023-05-02T06:42:24;8.63;;;6.18;;
65535;SDS011;52145;49.342;9.116;2023-05-02T06:44:50;9.02;;;6.30;;
65535;SDS011;52145;49.342;9.116;2023-05-02T06:47:16;8.98;;;6.60;;
65535;SDS011;52145;49.342;9.116;2023-05-02T06:49:42;23.88;;;9.48;;
65535;SDS011;52145;49.342;9.116;2023-05-02T06:52:08;10.43;;;6.57;;
65535;SDS011;52145;49.342;9.116;2023-05-02T06:54:34;12.27;;;7.35;;
65535;SDS011;52145;49.342;9.116;2023-05-02T06:57:00;9.23;;;7.30;;
65535;SDS011;52145;49.342;9.116;2023-05-02T06:59:26;9.02;;;7.20;;
65535;SDS011;52145;49.342;9.116;2023-05-02T07:01:52;9.65;;;7.65;;
65535;SDS011;52145;49.342;9.116;2023-05-02T07:04:18;9.07;;;6.70;;
65535;SDS011;52145;49.342;9.116;2023-05-02T07:06:45;10.63;;;7.35;;
65535;SDS011;52145;49.342;9.116;2023-05-02T07:09:11;12.32;;;7.60;;
65535;SDS011;52145;49.342;9.116;2023-05-02T07:11:37;11.30;;;8.13;;
65535;SDS011;52145;49.342;9.116;2023-05-02T07:14:03;9.98;;;7.22;;
65535;SDS011;52145;49.342;9.116;2023-05-02T07:16:29;11.73;;;9.20;;
65535;SDS011;52145;49.342;9.116;2023-05-02T07:18:55;11.20;;;8.50;;
65535;SDS011;52145;49.342;9.116;2023-05-02T07:21:21;12.00;;;7.68;;
65535;SDS011;52145;49.342;9.116;2023-05-02T07:23:47;14.15;;;8.68;;
65535;SDS011;52145;49.342;9.116;2023-05-02T07:26:13;11.82;;;8.45;;
65535;SDS011;52145;49.342;9.116;2023-05-02T07:28:39;14.27;;;8.80;;
65535;SDS011;52145;49.342;9.116;2023-05-02T07:31:05;11.55;;;8.35;;
65535;SDS011;52145;49.342;9.116;2023-05-02T07:33:31;12.05;;;8.80;;
65535;SDS011;52145;49.342;9.116;2023-05-02T07:35:57;16.75;;;10.57;;
65535;SDS011;52145;49.342;9.116;2023-05-02T07:38:23;13.63;;;9.93;;
65535;SDS011;52145;49.342;9.116;2023-05-02T07:40:49;12.10;;;8.82;;
65535;SDS011;52145;49.342;9.116;2023-05-02T07:43:15;12.65;;;8.98;;
65535;SDS011;52145;49.342;9.116;2023-05-02T07:45:41;15.07;;;9.25;;
65535;SDS011;52145;49.342;9.116;2023-05-02T07:48:07;16.75;;;10.70;;
65535;SDS011;52145;49.342;9.116;2023-05-02T07:50:33;16.77;;;11.50;;
65535;SDS011;52145;49.342;9.116;2023-05-02T07:52:59;17.52;;;12.95;;
65535;SDS011;52145;49.342;9.116;2023-05-02T07:55:25;15.15;;;10.88;;
65535;SDS011;52145;49.342;9.116;2023-05-02T07:57:51;20.13;;;11.18;;
65535;SDS011;52145;49.342;9.116;2023-05-02T08:00:17;16.02;;;11.95;;
65535;SDS011;52145;49.342;9.116;2023-05-02T08:02:43;15.75;;;12.27;;
65535;SDS011;52145;49.342;9.116;2023-05-02T08:05:10;17.83;;;12.13;;
65535;SDS011;52145;49.342;9.116;2023-05-02T08:07:35;15.20;;;10.65;;
65535;SDS011;52145;49.342;9.116;2023-05-02T08:10:01;15.18;;;11.10;;
65535;SDS011;52145;49.342;9.116;2023-05-02T08:12:27;14.75;;;11.32;;
65535;SDS011;52145;49.342;9.116;2023-05-02T08:14:53;16.13;;;11.95;;
65535;SDS011;52145;49.342;9.116;2023-05-02T08:17:20;17.85;;;11.45;;
65535;SDS011;52145;49.342;9.116;2023-05-02T08:19:46;15.40;;;11.73;;
65535;SDS011;52145;49.342;9.116;2023-05-02T08:22:12;16.38;;;11.45;;
65535;SDS011;52145;49.342;9.116;2023-05-02T08:24:38;14.63;;;11.65;;
65535;SDS011;52145;49.342;9.116;2023-05-02T08:27:03;17.58;;;12.38;;
65535;SDS011;52145;49.342;9.116;2023-05-02T08:29:30;16.55;;;13.35;;
65535;SDS011;52145;49.342;9.116;2023-05-02T08:31:56;16.65;;;11.68;;
65535;SDS011;52145;49.342;9.116;2023-05-02T08:34:22;14.35;;;10.45;;
65535;SDS011;52145;49.342;9.116;2023-05-02T08:36:48;16.90;;;12.35;;
65535;SDS011;52145;49.342;9.116;2023-05-02T08:39:14;15.10;;;11.65;;
65535;SDS011;52145;49.342;9.116;2023-05-02T08:41:41;14.68;;;11.15;;
65535;SDS011;52145;49.342;9.116;2023-05-02T08:44:07;19.52;;;12.35;;
65535;SDS011;52145;49.342;9.116;2023-05-02T08:46:34;15.02;;;11.13;;
65535;SDS011;52145;49.342;9.116;2023-05-02T08:49:01;15.63;;;11.10;;
65535;SDS011;52145;49.342;9.116;2023-05-02T08:51:28;16.95;;;11.48;;
65535;SDS011;52145;49.342;9.116;2023-05-02T08:53:56;16.98;;;11.10;;
65535;SDS011;52145;49.342;9.116;2023-05-02T08:56:22;14.75;;;11.68;;
65535;SDS011;52145;49.342;9.116;2023-05-02T08:58:49;14.32;;;10.68;;
65535;SDS011;52145;49.342;9.116;2023-05-02T09:01:15;12.18;;;10.30;;
65535;SDS011;52145;49.342;9.116;2023-05-02T09:03:42;14.70;;;11.15;;
65535;SDS011;52145;49.342;9.116;2023-05-02T09:08:38;13.90;;;10.40;;
65535;SDS011;52145;49.342;9.116;2023-05-02T09:11:05;14.38;;;10.10;;
65535;SDS011;52145;49.342;9.116;2023-05-02T09:16:20;14.43;;;9.90;;
65535;SDS011;52145;49.342;9.116;2023-05-02T09:18:57;13.02;;;9.63;;
65535;SDS011;52145;49.342;9.116;2023-05-02T09:21:24;14.73;;;11.00;;
65535;SDS011;52145;49.342;9.116;2023-05-02T09:28:48;17.55;;;11.63;;
65535;SDS011;52145;49.342;9.116;2023-05-02T09:31:19;17.27;;;11.57;;
65535;SDS011;52145;49.342;9.116;2023-05-02T09:33:45;15.68;;;11.68;;
65535;SDS011;52145;49.342;9.116;2023-05-02T09:36:12;16.80;;;12.02;;
65535;SDS011;52145;49.342;9.116;2023-05-02T09:38:39;14.65;;;11.00;;
65535;SDS011;52145;49.342;9.116;2023-05-02T09:41:05;14.30;;;10.30;;
65535;SDS011;52145;49.342;9.116;2023-05-02T09:43:31;13.77;;;10.95;;
65535;SDS011;52145;49.342;9.116;2023-05-02T09:48:23;13.85;;;10.52;;
65535;SDS011;52145;49.342;9.116;2023-05-02T09:50:49;17.08;;;11.32;;
65535;SDS011;52145;49.342;9.116;2023-05-02T09:53:15;15.40;;;11.50;;
65535;SDS011;52145;49.342;9.116;2023-05-02T09:55:41;11.48;;;9.23;;
65535;SDS011;52145;49.342;9.116;2023-05-02T09:58:07;13.32;;;9.32;;
65535;SDS011;52145;49.342;9.116;2023-05-02T10:00:44;14.95;;;10.77;;
65535;SDS011;52145;49.342;9.116;2023-05-02T10:03:10;13.65;;;10.18;;
65535;SDS011;52145;49.342;9.116;2023-05-02T10:05:40;12.65;;;9.48;;
65535;SDS011;52145;49.342;9.116;2023-05-02T10:08:07;11.77;;;9.73;;
65535;SDS011;52145;49.342;9.116;2023-05-02T10:10:35;10.85;;;8.57;;
65535;SDS011;52145;49.342;9.116;2023-05-02T10:13:04;12.88;;;9.25;;
65535;SDS011;52145;49.342;9.116;2023-05-02T10:15:31;13.18;;;9.05;;
65535;SDS011;52145;49.342;9.116;2023-05-02T10:17:58;12.05;;;8.75;;
65535;SDS011;52145;49.342;9.116;2023-05-02T10:20:27;11.27;;;9.20;;
65535;SDS011;52145;49.342;9.116;2023-05-02T10:22:55;12.10;;;8.73;;
65535;SDS011;52145;49.342;9.116;2023-05-02T10:25:24;11.13;;;8.32;;
65535;SDS011;52145;49.342;9.116;2023-05-02T10:27:50;11.25;;;8.60;;
65535;SDS011;52145;49.342;9.116;2023-05-02T10:30:16;12.43;;;9.23;;
65535;SDS011;52145;49.342;9.116;2023-05-02T10:32:43;10.15;;;7.53;;
65535;SDS011;52145;49.342;9.116;2023-05-02T10:35:10;11.70;;;8.70;;
65535;SDS011;52145;49.342;9.116;2023-05-02T10:37:37;10.52;;;7.90;;
65535;SDS011;52145;49.342;9.116;2023-05-02T10:40:04;9.77;;;7.28;;
65535;SDS011;52145;49.342;9.116;2023-05-02T10:42:30;10.32;;;7.35;;
65535;SDS011;52145;49.342;9.116;2023-05-02T10:44:59;9.88;;;7.63;;
65535;SDS011;52145;49.342;9.116;2023-05-02T10:47:25;10.98;;;8.55;;
65535;SDS011;52145;49.342;9.116;2023-05-02T10:49:55;10.50;;;7.72;;
65535;SDS011;52145;49.342;9.116;2023-05-02T10:52:28;12.07;;;7.32;;
65535;SDS011;52145;49.342;9.116;2023-05-02T11:00:23;9.93;;;6.90;;
65535;SDS011;52145;49.342;9.116;2023-05-02T11:02:49;9.63;;;7.75;;
65535;SDS011;52145;49.342;9.116;2023-05-02T11:05:15;14.80;;;8.27;;
65535;SDS011;52145;49.342;9.116;2023-05-02T11:07:41;11.27;;;9.18;;
65535;SDS011;52145;49.342;9.116;2023-05-02T11:12:49;11.50;;;8.73;;
65535;SDS011;52145;49.342;9.116;2023-05-02T11:18:09;13.95;;;9.30;;
65535;SDS011;52145;49.342;9.116;2023-05-02T11:20:42;11.25;;;9.10;;
65535;SDS011;52145;49.342;9.116;2023-05-02T11:25:54;13.40;;;9.52;;
65535;SDS011;52145;49.342;9.116;2023-05-02T11:31:08;11.43;;;9.88;;
65535;SDS011;52145;49.342;9.116;2023-05-02T11:33:34;11.93;;;8.52;;
65535;SDS011;52145;49.342;9.116;2023-05-02T11:36:37;11.93;;;8.90;;
65535;SDS011;52145;49.342;9.116;2023-05-02T11:39:37;11.30;;;8.70;;
65535;SDS011;52145;49.342;9.116;2023-05-02T11:42:03;12.10;;;7.70;;
65535;SDS011;52145;49.342;9.116;2023-05-02T11:44:29;11.20;;;7.88;;
65535;SDS011;52145;49.342;9.116;2023-05-02T11:46:55;9.52;;;7.35;;
65535;SDS011;52145;49.342;9.116;2023-05-02T11:49:21;11.10;;;6.82;;
65535;SDS011;52145;49.342;9.116;2023-05-02T11:51:47;8.50;;;6.32;;
65535;SDS011;52145;49.342;9.116;2023-05-02T11:54:19;9.32;;;7.20;;
65535;SDS011;52145;49.342;9.116;2023-05-02T11:56:46;8.05;;;6.05;;
65535;SDS011;52145;49.342;9.116;2023-05-02T11:59:12;8.88;;;6.13;;
65535;SDS011;52145;49.342;9.116;2023-05-02T12:01:48;8.73;;;6.97;;
65535;SDS011;52145;49.342;9.116;2023-05-02T12:04:14;8.80;;;6.80;;
65535;SDS011;52145;49.342;9.116;2023-05-02T12:06:53;9.73;;;6.95;;
65535;SDS011;52145;49.342;9.116;2023-05-02T12:09:19;9.20;;;7.13;;
65535;SDS011;52145;49.342;9.116;2023-05-02T12:11:50;9.70;;;6.93;;
65535;SDS011;52145;49.342;9.116;2023-05-02T12:14:16;9.32;;;7.43;;
65535;SDS011;52145;49.342;9.116;2023-05-02T12:16:42;10.98;;;7.43;;
65535;SDS011;52145;49.342;9.116;2023-05-02T12:19:08;8.07;;;6.25;;
65535;SDS011;52145;49.342;9.116;2023-05-02T12:21:34;10.93;;;6.80;;
65535;SDS011;52145;49.342;9.116;2023-05-02T12:24:00;9.38;;;6.95;;
65535;SDS011;52145;49.342;9.116;2023-05-02T12:26:26;9.25;;;7.28;;
65535;SDS011;52145;49.342;9.116;2023-05-02T12:28:57;10.32;;;6.82;;
65535;SDS011;52145;49.342;9.116;2023-05-02T12:31:23;10.20;;;7.13;;
65535;SDS011;52145;49.342;9.116;2023-05-02T12:33:51;10.32;;;6.40;;
65535;SDS011;52145;49.342;9.116;2023-05-02T12:36:21;7.78;;;5.97;;
65535;SDS011;52145;49.342;9.116;2023-05-02T12:38:48;9.18;;;6.00;;
65535;SDS011;52145;49.342;9.116;2023-05-02T12:41:16;8.02;;;6.40;;
65535;SDS011;52145;49.342;9.116;2023-05-02T12:43:45;8.55;;;6.85;;
65535;SDS011;52145;49.342;9.116;2023-05-02T12:46:11;9.63;;;5.90;;
65535;SDS011;52145;49.342;9.116;2023-05-02T12:48:37;9.93;;;6.82;;
65535;SDS011;52145;49.342;9.116;2023-05-02T12:51:03;9.77;;;6.43;;
65535;SDS011;52145;49.342;9.116;2023-05-02T12:53:39;8.30;;;6.07;;
65535;SDS011;52145;49.342;9.116;2023-05-02T12:56:06;9.02;;;5.75;;
65535;SDS011;52145;49.342;9.116;2023-05-02T12:58:45;6.65;;;5.00;;
65535;SDS011;52145;49.342;9.116;2023-05-02T13:01:11;13.15;;;7.28;;
65535;SDS011;52145;49.342;9.116;2023-05-02T13:03:38;9.77;;;7.30;;
65535;SDS011;52145;49.342;9.116;2023-05-02T13:06:04;12.05;;;7.85;;
65535;SDS011;52145;49.342;9.116;2023-05-02T13:08:33;9.80;;;6.57;;
65535;SDS011;52145;49.342;9.116;2023-05-02T13:11:00;13.88;;;7.78;;
65535;SDS011;52145;49.342;9.116;2023-05-02T13:13:26;9.82;;;6.07;;
65535;SDS011;52145;49.342;9.116;2023-05-02T13:15:53;8.75;;;5.90;;
65535;SDS011;52145;49.342;9.116;2023-05-02T13:18:19;9.98;;;6.32;;
65535;SDS011;52145;49.342;9.116;2023-05-02T13:20:45;10.68;;;5.95;;
65535;SDS011;52145;49.342;9.116;2023-05-02T13:23:11;7.72;;;5.53;;
65535;SDS011;52145;49.342;9.116;2023-05-02T13:25:37;9.65;;;5.63;;
65535;SDS011;52145;49.342;9.116;2023-05-02T13:28:03;8.07;;;5.50;;
65535;SDS011;52145;49.342;9.116;2023-05-02T13:30:30;7.72;;;5.53;;
65535;SDS011;52145;49.342;9.116;2023-05-02T13:32:56;8.07;;;5.55;;
65535;SDS011;52145;49.342;9.116;2023-05-02T13:35:22;7.85;;;5.78;;
65535;SDS011;52145;49.342;9.116;2023-05-02T13:37:49;9.75;;;6.28;;
65535;SDS011;52145;49.342;9.116;2023-05-02T13:40:15;9.45;;;5.80;;
65535;SDS011;52145;49.342;9.116;2023-05-02T13:42:41;11.38;;;6.45;;
65535;SDS011;52145;49.342;9.116;2023-05-02T13:45:07;7.78;;;5.80;;
65535;SDS011;52145;49.342;9.116;2023-05-02T13:47:34;8.13;;;5.78;;
65535;SDS011;52145;49.342;9.116;2023-05-02T13:50:00;8.95;;;5.75;;
65535;SDS011;52145;49.342;9.116;2023-05-02T13:52:26;9.65;;;5.65;;
65535;SDS011;52145;49.342;9.116;2023-05-02T13:54:52;9.88;;;6.10;;
65535;SDS011;52145;49.342;9.116;2023-05-02T13:57:17;10.23;;;6.32;;
65535;SDS011;52145;49.342;9.116;2023-05-02T13:59:43;7.97;;;5.50;;
65535;SDS011;52145;49.342;9.116;2023-05-02T14:02:09;7.88;;;5.35;;
65535;SDS011;52145;49.342;9.116;2023-05-02T14:04:35;8.30;;;5.00;;
65535;SDS011;52145;49.342;9.116;2023-05-02T14:07:01;7.57;;;4.85;;
65535;SDS011;52145;49.342;9.116;2023-05-02T14:09:27;7.07;;;5.00;;
65535;SDS011;52145;49.342;9.116;2023-05-02T14:11:53;9.48;;;4.90;;
65535;SDS011;52145;49.342;9.116;2023-05-02T14:14:19;8.15;;;5.45;;
65535;SDS011;52145;49.342;9.116;2023-05-02T14:16:45;8.45;;;4.35;;
65535;SDS011;52145;49.342;9.116;2023-05-02T14:19:11;8.40;;;4.35;;
65535;SDS011;52145;49.342;9.116;2023-05-02T14:21:37;7.13;;;4.63;;
65535;SDS011;52145;49.342;9.116;2023-05-02T14:24:04;7.07;;;4.45;;
65535;SDS011;52145;49.342;9.116;2023-05-02T14:26:30;5.60;;;4.05;;
65535;SDS011;52145;49.342;9.116;2023-05-02T14:28:56;6.80;;;4.45;;
65535;SDS011;52145;49.342;9.116;2023-05-02T14:31:22;7.22;;;3.60;;
65535;SDS011;52145;49.342;9.116;2023-05-02T14:33:48;5.72;;;3.95;;
65535;SDS011;52145;49.342;9.116;2023-05-02T14:36:14;6.72;;;4.18;;
65535;SDS011;52145;49.342;9.116;2023-05-02T14:38:40;7.97;;;4.25;;
65535;SDS011;52145;49.342;9.116;2023-05-02T14:41:06;6.90;;;4.25;;
65535;SDS011;52145;49.342;9.116;2023-05-02T14:43:32;6.70;;;4.30;;
65535;SDS011;52145;49.342;9.116;2023-05-02T14:45:58;6.72;;;4.50;;
65535;SDS011;52145;49.342;9.116;2023-05-02T14:48:24;8.07;;;4.90;;
65535;SDS011;52145;49.342;9.116;2023-05-02T14:50:50;8.80;;;4.57;;
65535;SDS011;52145;49.342;9.116;2023-05-02T14:53:17;7.82;;;4.63;;
65535;SDS011;52145;49.342;9.116;2023-05-02T14:55:45;8.63;;;4.93;;
65535;SDS011;52145;49.342;9.116;2023-05-02T14:58:11;7.70;;;4.85;;
65535;SDS011;52145;49.342;9.116;2023-05-02T15:00:43;6.78;;;4.90;;
65535;SDS011;52145;49.342;9.116;2023-05-02T15:03:08;7.93;;;4.45;;
65535;SDS011;52145;49.342;9.116;2023-05-02T15:05:35;6.90;;;4.40;;
65535;SDS011;52145;49.342;9.116;2023-05-02T15:08:01;7.15;;;4.28;;
65535;SDS011;52145;49.342;9.116;2023-05-02T15:10:27;6.00;;;3.60;;
65535;SDS011;52145;49.342;9.116;2023-05-02T15:12:53;5.97;;;3.15;;
65535;SDS011;52145;49.342;9.116;2023-05-02T15:15:19;4.80;;;3.08;;
65535;SDS011;52145;49.342;9.116;2023-05-02T15:17:49;4.93;;;3.22;;
65535;SDS011;52145;49.342;9.116;2023-05-02T15:20:15;4.90;;;2.95;;
65535;SDS011;52145;49.342;9.116;2023-05-02T15:22:41;5.15;;;3.42;;